createdAt,value
2018-07-11T00:01:39.894Z,13.30
2018-07-11T00:04:08.377Z,13.30
2018-07-11T00:06:36.662Z,13.30
2018-07-11T00:09:05.335Z,13.30
2018-07-11T00:11:33.648Z,13.30
2018-07-11T00:14:01.909Z,13.30
2018-07-11T00:16:30.189Z,13.40
2018-07-11T00:21:26.506Z,13.50
2018-07-11T00:23:54.777Z,13.50
2018-07-11T00:26:23.804Z,13.50
2018-07-11T00:28:52.111Z,13.60
2018-07-11T00:31:20.438Z,13.60
2018-07-11T00:33:48.713Z,13.60
2018-07-11T00:36:17.017Z,13.60
2018-07-11T00:38:46.282Z,13.60
2018-07-11T00:41:14.674Z,13.60
2018-07-11T00:43:42.969Z,13.60
2018-07-11T00:46:11.280Z,13.70
2018-07-11T00:48:39.621Z,13.70
2018-07-11T00:53:36.658Z,13.70
2018-07-11T00:56:05.009Z,13.80
2018-07-11T00:58:35.785Z,13.80
2018-07-11T01:01:16.437Z,13.80
2018-07-11T01:03:53.433Z,13.80
2018-07-11T01:06:21.729Z,13.90
2018-07-11T01:08:52.918Z,13.90
2018-07-11T01:11:22.625Z,13.90
2018-07-11T01:13:51.338Z,14.00
2018-07-11T01:16:20.799Z,14.00
2018-07-11T01:19:01.174Z,14.10
2018-07-11T01:21:30.113Z,14.10
2018-07-11T01:23:58.464Z,14.10
2018-07-11T01:26:28.437Z,14.20
2018-07-11T01:28:56.797Z,14.20
2018-07-11T01:31:25.374Z,14.20
2018-07-11T01:33:54.105Z,14.30
2018-07-11T01:36:22.459Z,14.30
2018-07-11T01:38:50.729Z,14.30
2018-07-11T01:41:19.006Z,14.30
2018-07-11T01:43:47.250Z,14.40
2018-07-11T01:46:15.962Z,14.40
2018-07-11T01:48:45.657Z,14.40
2018-07-11T01:51:14.022Z,14.40
2018-07-11T01:53:42.342Z,14.40
2018-07-11T01:56:10.678Z,14.40
2018-07-11T01:58:39.349Z,14.50
2018-07-11T02:01:07.639Z,14.50
2018-07-11T02:03:35.927Z,14.50
2018-07-11T02:06:04.218Z,14.50
2018-07-11T02:08:32.549Z,14.50
2018-07-11T02:11:00.822Z,14.50
2018-07-11T02:13:29.105Z,14.50
2018-07-11T02:15:57.409Z,14.50
2018-07-11T02:18:27.872Z,14.40
2018-07-11T02:20:56.579Z,14.50
2018-07-11T02:23:29.722Z,14.40
2018-07-11T02:28:26.001Z,14.50
2018-07-11T02:30:54.295Z,14.50
2018-07-11T02:33:22.571Z,14.50
2018-07-11T02:35:50.839Z,14.50
2018-07-11T02:38:19.158Z,14.50
2018-07-11T02:43:15.530Z,14.60
2018-07-11T02:45:43.851Z,14.60
2018-07-11T02:48:12.196Z,14.60
2018-07-11T02:50:40.526Z,14.60
2018-07-11T02:53:15.628Z,14.60
2018-07-11T02:55:43.941Z,14.70
2018-07-11T02:58:12.311Z,14.70
2018-07-11T03:00:40.649Z,14.70
2018-07-11T03:03:09.014Z,14.70
2018-07-11T03:05:37.366Z,14.70
2018-07-11T03:08:06.158Z,14.70
2018-07-11T03:10:34.537Z,14.80
2018-07-11T03:15:31.021Z,14.80
2018-07-11T03:17:59.467Z,14.80
2018-07-11T03:20:27.797Z,14.80
2018-07-11T03:22:56.143Z,14.80
2018-07-11T03:25:24.523Z,14.80
2018-07-11T03:27:52.866Z,14.80
2018-07-11T03:30:21.246Z,14.80
2018-07-11T03:32:49.773Z,14.90
2018-07-11T03:35:18.160Z,14.90
2018-07-11T03:37:46.583Z,14.90
2018-07-11T03:42:43.124Z,15.00
2018-07-11T03:45:11.529Z,15.00
2018-07-11T03:47:39.894Z,15.10
2018-07-11T03:50:08.366Z,15.10
2018-07-11T03:52:36.743Z,15.10
2018-07-11T03:55:05.195Z,15.10
2018-07-11T03:57:33.475Z,15.20
2018-07-11T04:00:01.854Z,15.20
2018-07-11T04:02:30.278Z,15.20
2018-07-11T04:04:58.701Z,15.30
2018-07-11T04:07:26.981Z,15.30
2018-07-11T04:09:55.355Z,15.30
2018-07-11T04:12:23.754Z,15.40
2018-07-11T04:14:52.078Z,15.40
2018-07-11T04:17:20.420Z,15.40
2018-07-11T04:19:48.858Z,15.50
2018-07-11T04:22:17.205Z,15.50
2018-07-11T04:27:13.794Z,15.50
2018-07-11T04:29:42.365Z,15.50
2018-07-11T04:32:10.801Z,15.60
2018-07-11T04:34:39.227Z,15.60
2018-07-11T04:37:07.726Z,15.70
2018-07-11T04:39:36.166Z,15.60
2018-07-11T04:42:04.665Z,15.70
2018-07-11T04:44:33.729Z,15.70
2018-07-11T04:47:02.186Z,15.70
2018-07-11T04:49:30.705Z,15.80
2018-07-11T04:54:27.684Z,15.80
2018-07-11T04:56:56.069Z,15.90
2018-07-11T04:59:24.410Z,15.90
2018-07-11T05:01:52.807Z,15.90
2018-07-11T05:04:22.093Z,16.00
2018-07-11T05:06:50.416Z,16.00
2018-07-11T05:09:18.749Z,16.00
2018-07-11T05:14:15.256Z,16.10
2018-07-11T05:16:43.602Z,16.10
2018-07-11T05:19:11.947Z,16.10
2018-07-11T05:21:40.342Z,16.10
2018-07-11T05:24:08.718Z,16.10
2018-07-11T05:26:37.038Z,16.20
2018-07-11T05:29:05.429Z,16.20
2018-07-11T05:31:33.795Z,16.20
2018-07-11T05:34:02.205Z,16.30
2018-07-11T05:36:30.601Z,16.30
2018-07-11T05:38:59.018Z,16.30
2018-07-11T05:41:27.422Z,16.30
2018-07-11T05:43:55.801Z,16.40
2018-07-11T05:46:24.173Z,16.40
2018-07-11T05:48:52.529Z,16.40
2018-07-11T05:51:20.870Z,16.40
2018-07-11T05:56:17.449Z,16.40
2018-07-11T05:58:45.865Z,16.40
2018-07-11T06:01:14.248Z,16.50
2018-07-11T06:03:42.578Z,16.40
2018-07-11T06:06:11.010Z,16.50
2018-07-11T06:08:39.382Z,16.50
2018-07-11T06:11:22.206Z,16.50
2018-07-11T06:13:51.278Z,16.50
2018-07-11T06:16:19.676Z,16.50
2018-07-11T06:18:48.366Z,16.50
2018-07-11T06:21:16.733Z,16.60
2018-07-11T06:23:45.214Z,16.60
2018-07-11T06:26:13.553Z,16.60
2018-07-11T06:28:41.869Z,16.60
2018-07-11T06:31:10.310Z,16.60
2018-07-11T06:33:38.705Z,16.60
2018-07-11T06:36:07.188Z,16.60
2018-07-11T06:38:35.802Z,16.70
2018-07-11T06:41:04.182Z,16.70
2018-07-11T06:43:32.627Z,16.60
2018-07-11T06:46:01.262Z,16.70
2018-07-11T06:48:29.791Z,16.70
2018-07-11T06:50:58.206Z,16.70
2018-07-11T06:53:26.652Z,16.70
2018-07-11T06:55:55.371Z,16.70
2018-07-11T06:58:23.826Z,16.70
2018-07-11T07:00:52.262Z,16.70
2018-07-11T07:03:20.614Z,16.70
2018-07-11T07:05:48.950Z,16.70
2018-07-11T07:08:17.326Z,16.70
2018-07-11T07:10:45.649Z,16.70
2018-07-11T07:13:14.007Z,16.70
2018-07-11T07:15:42.406Z,16.70
2018-07-11T07:18:10.761Z,16.70
2018-07-11T07:20:39.095Z,16.60
2018-07-11T07:23:07.437Z,16.60
2018-07-11T07:25:35.779Z,16.70
2018-07-11T07:28:04.102Z,16.60
2018-07-11T07:30:32.586Z,16.60
2018-07-11T07:33:00.922Z,16.70
2018-07-11T07:35:29.290Z,16.70
2018-07-11T07:37:57.686Z,16.60
2018-07-11T07:40:26.024Z,16.70
2018-07-11T07:42:54.493Z,16.70
2018-07-11T07:45:23.121Z,16.70
2018-07-11T07:47:51.480Z,16.70
2018-07-11T07:50:19.914Z,16.70
2018-07-11T07:52:48.409Z,16.70
2018-07-11T07:55:16.806Z,16.80
2018-07-11T07:57:45.205Z,16.80
2018-07-11T08:00:13.533Z,16.80
2018-07-11T08:02:42.118Z,16.80
2018-07-11T08:05:10.785Z,16.80
2018-07-11T08:07:39.659Z,16.90
2018-07-11T08:10:09.178Z,16.90
2018-07-11T08:12:38.112Z,16.90
2018-07-11T08:15:07.357Z,17.00
2018-07-11T08:17:35.928Z,17.00
2018-07-11T08:20:04.619Z,17.00
2018-07-11T08:23:12.977Z,17.10
2018-07-11T08:25:53.506Z,17.10
2018-07-11T08:29:34.430Z,17.10
2018-07-11T08:32:17.468Z,17.10
2018-07-11T08:36:59.542Z,17.10
2018-07-11T08:39:41.821Z,17.10
2018-07-11T08:42:31.517Z,17.10
2018-07-11T08:45:15.512Z,17.20
2018-07-11T08:47:59.230Z,17.10
2018-07-11T08:50:36.478Z,17.20
2018-07-11T08:55:23.283Z,17.20
2018-07-11T08:58:08.821Z,17.20
2018-07-11T09:01:05.356Z,17.30
2018-07-11T09:03:45.718Z,17.30
2018-07-11T09:06:27.027Z,17.30
2018-07-11T09:11:13.493Z,17.30
2018-07-11T09:14:57.153Z,17.30
2018-07-11T09:17:44.073Z,17.30
2018-07-11T09:20:24.595Z,17.30
2018-07-11T09:23:05.718Z,17.30
2018-07-11T09:25:34.061Z,17.30
2018-07-11T09:28:02.501Z,17.30
2018-07-11T09:30:32.050Z,17.30
2018-07-11T09:33:00.490Z,17.40
2018-07-11T09:35:28.913Z,17.40
2018-07-11T09:37:57.361Z,17.40
2018-07-11T09:40:25.678Z,17.40
2018-07-11T09:42:54.160Z,17.40
2018-07-11T09:45:22.516Z,17.40
2018-07-11T09:47:50.995Z,17.50
2018-07-11T09:50:19.397Z,17.50
2018-07-11T09:52:47.827Z,17.50
2018-07-11T09:55:16.177Z,17.50
2018-07-11T09:57:44.674Z,17.50
2018-07-11T10:00:18.337Z,17.50
2018-07-11T10:02:48.350Z,17.50
2018-07-11T10:05:16.815Z,17.40
2018-07-11T10:07:45.217Z,17.40
2018-07-11T10:10:13.593Z,17.30
2018-07-11T10:12:42.021Z,17.30
2018-07-11T10:15:10.354Z,17.30
2018-07-11T10:17:44.341Z,17.40
2018-07-11T10:20:12.765Z,17.40
2018-07-11T10:22:41.194Z,17.50
2018-07-11T10:25:09.554Z,17.50
2018-07-11T10:27:38.697Z,17.60
2018-07-11T10:30:07.417Z,17.60
2018-07-11T10:32:36.022Z,17.70
2018-07-11T10:35:04.659Z,17.70
2018-07-11T10:37:33.153Z,17.80
2018-07-11T10:40:01.477Z,17.90
2018-07-11T10:42:30.602Z,18.10
2018-07-11T10:44:59.084Z,18.10
2018-07-11T10:47:27.434Z,18.20
2018-07-11T10:49:55.901Z,18.10
2018-07-11T10:52:24.330Z,18.00
2018-07-11T10:54:52.674Z,18.00
2018-07-11T10:57:21.282Z,18.00
2018-07-11T10:59:49.810Z,18.00
2018-07-11T11:02:20.998Z,18.00
2018-07-11T11:04:49.646Z,18.00
2018-07-11T11:07:18.035Z,18.20
2018-07-11T11:09:46.439Z,18.30
2018-07-11T11:12:15.090Z,18.50
2018-07-11T11:14:43.475Z,18.50
2018-07-11T11:17:11.924Z,18.60
2018-07-11T11:19:40.376Z,18.60
2018-07-11T11:22:08.876Z,18.60
2018-07-11T11:24:37.381Z,18.50
2018-07-11T11:27:05.938Z,18.50
2018-07-11T11:29:34.528Z,18.50
2018-07-11T11:32:02.929Z,18.50
2018-07-11T11:34:31.346Z,18.60
2018-07-11T11:36:59.681Z,18.50
2018-07-11T11:39:28.077Z,18.50
2018-07-11T11:41:56.578Z,18.50
2018-07-11T11:44:24.897Z,18.50
2018-07-11T11:46:57.145Z,18.40
2018-07-11T11:49:25.503Z,18.30
2018-07-11T11:51:53.853Z,18.20
2018-07-11T11:54:22.454Z,18.20
2018-07-11T11:56:50.831Z,18.10
2018-07-11T11:59:19.193Z,18.20
2018-07-11T12:01:47.715Z,18.10
2018-07-11T12:04:16.202Z,18.10
2018-07-11T12:06:44.640Z,18.20
2018-07-11T12:09:13.063Z,18.20
2018-07-11T12:11:41.701Z,18.30
2018-07-11T12:14:10.106Z,18.40
2018-07-11T12:16:38.545Z,18.50
2018-07-11T12:19:06.944Z,18.50
2018-07-11T12:21:36.309Z,18.70
2018-07-11T12:24:04.697Z,18.80
2018-07-11T12:26:33.122Z,18.80
2018-07-11T12:29:01.476Z,18.90
2018-07-11T12:31:30.094Z,18.90
2018-07-11T12:33:58.650Z,18.90
2018-07-11T12:36:27.116Z,18.70
2018-07-11T12:38:56.340Z,18.60
2018-07-11T12:41:25.005Z,18.50
2018-07-11T12:43:53.522Z,18.40
2018-07-11T12:46:21.987Z,18.40
2018-07-11T12:48:55.679Z,18.40
2018-07-11T12:51:24.150Z,18.50
2018-07-11T12:53:52.569Z,18.40
2018-07-11T12:56:21.026Z,18.30
2018-07-11T12:58:49.509Z,18.20
2018-07-11T13:01:18.014Z,18.10
2018-07-11T13:03:46.688Z,18.10
2018-07-11T13:06:15.045Z,18.00
2018-07-11T13:08:43.561Z,18.00
2018-07-11T13:11:11.905Z,18.10
2018-07-11T13:13:40.246Z,18.00
2018-07-11T13:16:08.715Z,18.10
2018-07-11T13:18:37.030Z,18.10
2018-07-11T13:21:05.429Z,18.10
2018-07-11T13:23:33.782Z,18.20
2018-07-11T13:26:02.195Z,18.10
2018-07-11T13:28:30.562Z,18.10
2018-07-11T13:30:59.350Z,18.10
2018-07-11T13:33:27.799Z,18.10
2018-07-11T13:35:56.209Z,18.20
2018-07-11T13:38:24.586Z,18.20
2018-07-11T13:40:53.001Z,18.30
2018-07-11T13:43:21.493Z,18.30
2018-07-11T13:48:17.985Z,18.40
2018-07-11T13:50:46.369Z,18.40
2018-07-11T13:53:14.761Z,18.40
2018-07-11T13:55:43.217Z,18.40
2018-07-11T13:58:11.677Z,18.40
2018-07-11T14:00:40.126Z,18.40
2018-07-11T14:03:08.527Z,18.40
2018-07-11T14:05:36.937Z,18.50
2018-07-11T14:08:05.338Z,18.50
2018-07-11T14:10:33.716Z,18.60
2018-07-11T14:13:02.091Z,18.60
2018-07-11T14:15:30.477Z,18.70
2018-07-11T14:17:59.062Z,18.70
2018-07-11T14:20:27.459Z,18.60
2018-07-11T14:23:01.439Z,18.60
2018-07-11T14:25:29.898Z,18.60
2018-07-11T14:27:58.413Z,18.50
2018-07-11T14:30:26.777Z,18.50
2018-07-11T14:32:56.769Z,18.40
2018-07-11T14:35:25.589Z,18.30
2018-07-11T14:37:54.129Z,18.30
2018-07-11T14:40:22.563Z,18.20
2018-07-11T14:42:51.026Z,18.20
2018-07-11T14:45:19.729Z,18.20
2018-07-11T14:47:53.578Z,18.20
2018-07-11T14:50:21.941Z,18.20
2018-07-11T14:55:18.453Z,18.20
2018-07-11T14:57:47.269Z,18.30
2018-07-11T15:00:15.687Z,18.30
2018-07-11T15:02:44.081Z,18.40
2018-07-11T15:05:12.607Z,18.50
2018-07-11T15:07:41.010Z,18.70
2018-07-11T15:10:09.603Z,18.70
2018-07-11T15:12:38.297Z,18.70
2018-07-11T15:15:06.722Z,18.70
2018-07-11T15:17:35.109Z,18.70
2018-07-11T15:20:03.545Z,18.70
2018-07-11T15:22:31.973Z,18.60
2018-07-11T15:25:00.411Z,18.60
2018-07-11T15:27:28.882Z,18.60
2018-07-11T15:29:57.581Z,18.60
2018-07-11T15:32:26.097Z,18.60
2018-07-11T15:34:54.507Z,18.60
2018-07-11T15:37:22.950Z,18.60
2018-07-11T15:39:52.465Z,18.60
2018-07-11T15:42:21.074Z,18.50
2018-07-11T15:44:50.458Z,18.40
2018-07-11T15:47:20.963Z,18.30
2018-07-11T15:49:50.737Z,18.30
2018-07-11T15:52:20.245Z,18.20
2018-07-11T15:54:48.729Z,18.30
2018-07-11T15:57:20.929Z,18.30
2018-07-11T15:59:57.109Z,18.30
2018-07-11T16:02:25.517Z,18.30
2018-07-11T16:04:53.909Z,18.30
2018-07-11T16:07:22.313Z,18.30
2018-07-11T16:09:55.593Z,18.30
2018-07-11T16:12:24.685Z,18.30
2018-07-11T16:14:53.213Z,18.30
2018-07-11T16:19:50.386Z,18.40
2018-07-11T16:22:19.101Z,18.30
2018-07-11T16:24:47.780Z,18.30
2018-07-11T16:27:16.238Z,18.30
2018-07-11T16:29:44.753Z,18.30
2018-07-11T16:32:13.236Z,18.30
2018-07-11T16:34:41.673Z,18.20
2018-07-11T16:37:10.131Z,18.20
2018-07-11T16:39:38.627Z,18.20
2018-07-11T16:42:07.198Z,18.10
2018-07-11T16:44:36.356Z,18.10
2018-07-11T16:47:06.413Z,18.00
2018-07-11T16:49:37.916Z,18.00
2018-07-11T16:52:06.328Z,18.00
2018-07-11T16:54:34.781Z,18.00
2018-07-11T16:57:04.637Z,17.90
2018-07-11T16:59:40.021Z,17.80
2018-07-11T17:02:09.030Z,17.70
2018-07-11T17:04:40.226Z,17.60
2018-07-11T17:07:11.262Z,17.60
2018-07-11T17:09:40.113Z,17.50
2018-07-11T17:12:11.973Z,17.50
2018-07-11T17:14:41.645Z,17.40
2018-07-11T17:17:10.066Z,17.40
2018-07-11T17:19:42.917Z,17.40
2018-07-11T17:22:11.380Z,17.40
2018-07-11T17:24:45.797Z,17.30
2018-07-11T17:27:14.526Z,17.30
2018-07-11T17:29:45.253Z,17.30
2018-07-11T17:32:13.685Z,17.20
2018-07-11T17:34:42.117Z,17.20
2018-07-11T17:37:11.281Z,17.20
2018-07-11T17:39:50.314Z,17.20
2018-07-11T17:42:22.640Z,17.20
2018-07-11T17:45:23.166Z,17.20
2018-07-11T17:50:04.540Z,17.10
2018-07-11T17:53:08.862Z,17.10
2018-07-11T17:55:44.073Z,17.10
2018-07-11T17:58:12.674Z,17.10
2018-07-11T18:00:50.592Z,17.10
2018-07-11T18:03:31.517Z,17.10
2018-07-11T18:06:07.558Z,17.10
2018-07-11T18:08:49.349Z,17.00
2018-07-11T18:11:17.743Z,17.10
2018-07-11T18:13:52.238Z,17.00
2018-07-11T18:16:59.411Z,17.00
2018-07-11T18:20:13.347Z,17.00
2018-07-11T18:22:52.115Z,17.00
2018-07-11T18:26:00.411Z,17.00
2018-07-11T18:28:37.799Z,16.90
2018-07-11T18:31:26.165Z,16.90
2018-07-11T18:34:05.838Z,16.90
2018-07-11T18:37:14.430Z,16.90
2018-07-11T18:40:10.071Z,16.90
2018-07-11T18:45:35.949Z,16.80
2018-07-11T18:48:44.621Z,16.80
2018-07-11T18:51:21.557Z,16.80
2018-07-11T18:54:02.716Z,16.70
2018-07-11T18:57:04.516Z,16.70
2018-07-11T18:59:41.078Z,16.70
2018-07-11T19:02:23.994Z,16.70
2018-07-11T19:05:06.298Z,16.70
2018-07-11T19:07:40.293Z,16.70
2018-07-11T19:10:08.718Z,16.70
2018-07-11T19:12:55.710Z,16.60
2018-07-11T19:15:35.527Z,16.60
2018-07-11T19:18:14.575Z,16.60
2018-07-11T19:21:02.138Z,16.60
2018-07-11T19:23:39.305Z,16.60
2018-07-11T19:26:21.250Z,16.60
2018-07-11T19:29:02.741Z,16.60
2018-07-11T19:31:43.288Z,16.60
2018-07-11T19:36:28.778Z,16.50
2018-07-11T19:39:06.222Z,16.60
2018-07-11T19:41:49.847Z,16.50
2018-07-11T19:46:33.885Z,16.50
2018-07-11T19:49:12.557Z,16.50
2018-07-11T19:51:53.013Z,16.50
2018-07-11T19:54:32.853Z,16.50
2018-07-11T19:57:02.257Z,16.50
2018-07-11T19:59:30.625Z,16.50
2018-07-11T20:01:59.145Z,16.50
2018-07-11T20:04:27.550Z,16.40
2018-07-11T20:06:55.984Z,16.40
2018-07-11T20:09:24.401Z,16.40
2018-07-11T20:14:21.282Z,16.40
2018-07-11T20:16:49.671Z,16.40
2018-07-11T20:19:18.231Z,16.40
2018-07-11T20:21:46.650Z,16.30
2018-07-11T20:24:15.239Z,16.30
2018-07-11T20:26:43.615Z,16.40
2018-07-11T20:29:12.196Z,16.30
2018-07-11T20:31:40.654Z,16.30
2018-07-11T20:34:09.005Z,16.30
2018-07-11T20:36:37.374Z,16.30
2018-07-11T20:39:05.804Z,16.30
2018-07-11T20:41:34.235Z,16.30
2018-07-11T20:44:02.657Z,16.30
2018-07-11T20:46:31.267Z,16.30
2018-07-11T20:48:59.754Z,16.30
2018-07-11T20:51:28.133Z,16.30
2018-07-11T20:53:56.513Z,16.20
2018-07-11T20:56:24.968Z,16.20
2018-07-11T20:59:05.343Z,16.20
2018-07-11T21:01:45.137Z,16.10
2018-07-11T21:04:24.761Z,16.10
2018-07-11T21:09:09.402Z,16.00
2018-07-11T21:15:53.401Z,16.00
2018-07-11T21:18:52.485Z,15.90
2018-07-11T21:21:21.415Z,15.80
2018-07-11T21:23:49.765Z,15.70
2018-07-11T21:26:18.209Z,15.70
2018-07-11T21:28:46.577Z,15.60
2018-07-11T21:31:15.023Z,15.60
2018-07-11T21:33:43.360Z,15.60
2018-07-11T21:36:11.753Z,15.60
2018-07-11T21:38:40.169Z,15.60
2018-07-11T21:41:08.490Z,15.50
2018-07-11T21:43:36.946Z,15.50
2018-07-11T21:46:05.450Z,15.50
2018-07-11T21:48:33.906Z,15.50
2018-07-11T21:51:02.397Z,15.40
2018-07-11T21:53:30.752Z,15.40
2018-07-11T21:55:59.153Z,15.40
2018-07-11T21:58:28.165Z,15.30
2018-07-11T22:01:02.210Z,15.30
2018-07-11T22:03:30.783Z,15.30
2018-07-11T22:05:59.176Z,15.30
2018-07-11T22:08:27.545Z,15.20
2018-07-11T22:10:55.910Z,15.20
2018-07-11T22:13:24.301Z,15.20
2018-07-11T22:15:52.824Z,15.20
2018-07-11T22:18:31.911Z,15.10
2018-07-11T22:20:59.862Z,15.10
2018-07-11T22:23:27.485Z,15.10
2018-07-11T22:25:54.698Z,15.00
2018-07-11T22:28:21.953Z,15.10
2018-07-11T22:30:49.253Z,15.00
2018-07-11T22:33:16.641Z,15.00
2018-07-11T22:35:43.991Z,15.00
2018-07-11T22:38:11.657Z,15.00
2018-07-11T22:40:39.210Z,15.00
2018-07-11T22:43:06.734Z,15.00
2018-07-11T22:45:34.074Z,15.00
2018-07-11T22:48:01.330Z,15.00
2018-07-11T22:50:28.937Z,15.00
2018-07-11T22:52:56.360Z,15.00
2018-07-11T22:55:23.649Z,15.10
2018-07-11T22:57:51.213Z,15.10
2018-07-11T23:00:18.530Z,15.00
2018-07-11T23:02:45.781Z,15.10
2018-07-11T23:05:13.096Z,15.10
2018-07-11T23:07:40.350Z,15.10
2018-07-11T23:10:07.664Z,15.10
2018-07-11T23:12:34.983Z,15.10
2018-07-11T23:15:02.249Z,15.20
2018-07-11T23:17:29.542Z,15.20
2018-07-11T23:19:56.856Z,15.20
2018-07-11T23:22:24.106Z,15.20
2018-07-11T23:24:51.384Z,15.20
2018-07-11T23:27:18.657Z,15.10
2018-07-11T23:29:45.917Z,15.10
2018-07-11T23:32:13.173Z,15.10
2018-07-11T23:34:40.425Z,15.10
2018-07-11T23:37:07.706Z,15.10
2018-07-11T23:39:34.973Z,15.10
2018-07-11T23:42:02.257Z,15.10
2018-07-11T23:44:29.538Z,15.10
2018-07-11T23:46:56.790Z,15.00
2018-07-11T23:51:51.605Z,15.00
2018-07-11T23:54:18.901Z,15.10
2018-07-11T23:56:46.159Z,15.10
2018-07-11T23:59:13.409Z,15.00
